Startpagina
METAR-TAF:

METAR-TAF

Vliegvelden :

Luchthaven Warschau Frédéric Chopin

Warschau, Polen

breedte: 52-10N, lengte: 020-58E, hoogte: 106 m

Actueel weer

Dit bericht is 26 minuten geleden gemaakt, om 11:00 UTC
Wind 8 kt uit het oosten
Temperatuur 4°C
Vochtigheid 70%
Druk 1039 hPa
Zicht 10 km of meer
Gebroken wolken op 2100 ft
Gebroken wolken op 2600 ft

METAR: EPWA 161100Z 10008KT 9999 BKN021 BKN026 04/M01 Q1039 NOSIG

Tijdstip: 12:26 (11:26 UTC)

Verwachting

Dit bericht is 2 uur en het 56 minuten geleden gemaakt, om 08:30 UTC
Verwachting geldig van 16 om 09 UTC tot 17 om 09 UTC
Wind 10 kt uit het oosten
Zicht 10 km of meer
Gebroken wolken op 2000 ft
Kans 40% :
Tijdelijke
van 16 om 20 UTC tot 17 om 07 UTC
Gebroken wolken op 700 ft

TAF: EPWA 160830Z 1609/1709 10010KT 9999 BKN020 PROB40 TEMPO 1620/1707 BKN007

Waarnemingen en weersverwachtingen van meer dan 4000 vliegvelden (METAR en TAF).

De beschikbare stations zijn de gele en rode punten op de kaart.

Ga met uw muis naar het station om de naam te zien.

Klik dan om waarnemingen en weersverwachtingen te zien.

kaart wijzigen: klik op de groene knoppen met een zwart kruis om in te zoomen, op de groene knop met een streepje om uit te zoomen of op de groene pijlen voor aangrenzende kaarten.


METAR-TAF: